Hampton Falls, New Hampshire
Current Conditions -  °F | °C
As of 10:58 AM on Thursday 30 Oct 2014 (Local Time) from KPSM Reporting Station
Broken Clouds Broken Clouds  
Wind Chill: 11°   Ceiling: 8000
Heat Index: 11°   Visibility: 10mi
Dew Point:   Wind: 7mph
Humidity: 71%   Direction: 260°W
Pressure: 29.91"   Gusts: NA
Location:  42.92°N, 70.86°W
Report Text: KPSM 301458Z 26006KT 10SM BKN080 11/06 A2991 RMK AO2A SLP132 T01060055 50001
Loading
Personal Weather Stations






























Interactive Weather Map
Tropical Storm Tracking
New forecast layout! Learn more

10-Day Weather Forecast

Advertisements
Track Severe Weather on mobile